Time;durP1;ratioP1;P1;durP2;ratioP2;P2;SDS_P1;SDS_P2;PMS_P1;PMS_P2;Temp;Humidity;BMP_temperature;BMP_pressure;BME280_temperature;BME280_humidity;BME280_pressure;Samples;Min_cycle;Max_cycle;Signal;HPM_P1;HPM_P2
2023/10/16 00:00:43;;;;;;;10.43;7.07;;;5.50;99.90;;;;;;5076998;28;20108;-64
2023/10/16 00:03:12;;;;;;;10.05;7.28;;;5.50;99.90;;;;;;5075719;28;20021;-63
2023/10/16 00:05:44;;;;;;;10.15;7.05;;;5.50;99.90;;;;;;5077115;28;20024;-64
2023/10/16 00:08:16;;;;;;;11.25;7.68;;;5.50;99.90;;;;;;5076730;28;20476;-64
2023/10/16 00:10:43;;;;;;;13.52;7.93;;;5.40;99.90;;;;;;5075941;28;20033;-64
2023/10/16 00:13:12;;;;;;;11.52;7.70;;;5.40;99.90;;;;;;5076791;28;20031;-63
2023/10/16 00:15:44;;;;;;;10.02;7.28;;;5.40;99.90;;;;;;5076748;28;20107;-63
2023/10/16 00:18:17;;;;;;;13.77;7.90;;;5.40;99.90;;;;;;5076682;28;20485;-63
2023/10/16 00:20:44;;;;;;;11.50;7.45;;;5.40;99.90;;;;;;5075374;28;20031;-63
2023/10/16 00:23:11;;;;;;;8.13;6.57;;;5.50;99.90;;;;;;5075379;28;20055;-64
2023/10/16 00:25:40;;;;;;;8.10;6.35;;;5.50;99.90;;;;;;5075448;28;20036;-64
2023/10/16 00:28:10;;;;;;;8.55;5.97;;;5.60;99.90;;;;;;5076692;28;20021;-63
2023/10/16 00:30:40;;;;;;;8.88;6.40;;;5.60;99.90;;;;;;5076486;28;20143;-63
2023/10/16 00:33:10;;;;;;;9.30;6.55;;;5.70;99.90;;;;;;5061666;28;20408;-64
2023/10/16 00:35:45;;;;;;;9.07;6.22;;;5.70;99.90;;;;;;5056729;28;20351;-63
2023/10/16 00:38:13;;;;;;;8.73;7.07;;;5.70;99.90;;;;;;5055973;28;20069;-64
2023/10/16 00:41:10;;;;;;;8.48;5.80;;;5.60;99.90;;;;;;5038604;28;20025;-63
2023/10/16 00:43:32;;;;;;;8.30;6.07;;;5.50;99.90;;;;;;5055447;28;20041;-63
2023/10/16 00:46:14;;;;;;;6.60;5.50;;;5.60;99.90;;;;;;5038156;28;20037;-63
2023/10/16 00:48:41;;;;;;;8.43;6.13;;;5.60;99.90;;;;;;5056545;28;20495;-64
2023/10/16 00:51:09;;;;;;;7.00;5.90;;;5.70;99.90;;;;;;5055766;28;20029;-63
2023/10/16 00:53:40;;;;;;;7.00;5.70;;;5.80;99.90;;;;;;5056018;28;20060;-64
2023/10/16 00:56:09;;;;;;;8.82;5.78;;;5.80;99.90;;;;;;5038125;28;20449;-64
2023/10/16 00:58:35;;;;;;;14.48;5.82;;;5.80;99.90;;;;;;5038059;28;20053;-63
2023/10/16 01:01:12;;;;;;;11.50;5.88;;;5.80;99.90;;;;;;5055837;28;20029;-64
2023/10/16 01:03:40;;;;;;;8.68;5.93;;;5.70;99.90;;;;;;5056124;28;20091;-64
2023/10/16 01:06:14;;;;;;;7.15;5.20;;;5.70;99.90;;;;;;5055698;28;20032;-63
2023/10/16 01:08:51;;;;;;;6.22;4.93;;;5.70;99.90;;;;;;5055799;28;20036;-63
2023/10/16 01:11:20;;;;;;;7.43;5.00;;;5.70;99.90;;;;;;5037965;28;20029;-64
2023/10/16 01:13:51;;;;;;;6.55;4.97;;;5.70;99.90;;;;;;5055644;28;20032;-64
2023/10/16 01:16:18;;;;;;;7.40;5.55;;;5.70;99.90;;;;;;5055843;28;20032;-64
2023/10/16 01:18:45;;;;;;;5.60;4.60;;;5.60;99.90;;;;;;5055590;28;20025;-64
2023/10/16 01:21:14;;;;;;;7.55;5.22;;;5.60;99.90;;;;;;5037576;28;20532;-64
2023/10/16 01:23:40;;;;;;;7.63;4.95;;;5.60;99.90;;;;;;5055494;28;20028;-63
2023/10/16 01:26:06;;;;;;;9.10;5.50;;;5.60;99.90;;;;;;5037411;28;20184;-64
2023/10/16 01:28:32;;;;;;;6.57;4.82;;;5.60;99.90;;;;;;5055647;28;20036;-63
2023/10/16 01:31:00;;;;;;;6.13;4.93;;;5.60;99.90;;;;;;5055288;28;20025;-64
2023/10/16 01:33:26;;;;;;;5.32;4.60;;;5.50;99.90;;;;;;5067780;28;20049;-64
2023/10/16 01:35:52;;;;;;;7.18;5.10;;;5.50;99.90;;;;;;5075257;28;20043;-64
2023/10/16 01:38:18;;;;;;;6.10;4.40;;;5.40;99.90;;;;;;5075485;28;20032;-64
2023/10/16 01:40:47;;;;;;;7.78;5.35;;;5.50;99.90;;;;;;5073653;28;20479;-64
2023/10/16 01:43:16;;;;;;;7.07;5.05;;;5.50;99.90;;;;;;5075141;28;20029;-64
2023/10/16 01:45:52;;;;;;;7.43;5.10;;;5.50;99.90;;;;;;5074915;28;20037;-63
2023/10/16 01:48:21;;;;;;;7.65;5.25;;;5.40;99.90;;;;;;5075134;28;20353;-64
2023/10/16 01:50:49;;;;;;;9.18;5.30;;;5.40;99.90;;;;;;5074897;28;20056;-64
2023/10/16 01:53:20;;;;;;;6.10;5.13;;;5.50;99.90;;;;;;5074981;28;20028;-64
2023/10/16 01:55:55;;;;;;;7.22;5.07;;;5.40;99.90;;;;;;5075004;28;20036;-63
2023/10/16 01:58:25;;;;;;;7.03;5.68;;;5.40;99.90;;;;;;5074873;28;20025;-63
2023/10/16 02:00:54;;;;;;;7.43;5.32;;;5.40;99.90;;;;;;5073518;28;20031;-64
2023/10/16 02:03:22;;;;;;;10.63;5.38;;;5.40;99.90;;;;;;5073877;28;20064;-64
2023/10/16 02:05:48;;;;;;;9.20;4.43;;;5.50;99.90;;;;;;5074545;28;20461;-64
2023/10/16 02:08:14;;;;;;;4.90;4.20;;;5.60;99.90;;;;;;5074534;28;20055;-64
2023/10/16 02:10:41;;;;;;;6.70;4.38;;;5.60;99.90;;;;;;5073228;28;20082;-64
2023/10/16 02:13:10;;;;;;;7.07;3.95;;;5.60;99.90;;;;;;5074464;28;20031;-64
2023/10/16 02:15:36;;;;;;;4.00;3.38;;;5.60;99.90;;;;;;5074218;28;20051;-64
2023/10/16 02:18:07;;;;;;;3.72;2.90;;;5.70;99.90;;;;;;5074083;28;20039;-64
2023/10/16 02:20:36;;;;;;;4.60;3.20;;;5.70;99.90;;;;;;5074120;28;20021;-67
2023/10/16 02:23:08;;;;;;;3.38;3.08;;;5.70;99.90;;;;;;5074330;28;20061;-65
2023/10/16 02:25:35;;;;;;;5.88;3.45;;;5.70;99.90;;;;;;5074381;28;20044;-65
2023/10/16 02:28:02;;;;;;;4.85;3.30;;;5.60;99.90;;;;;;5072653;28;20024;-65
2023/10/16 02:32:53;;;;;;;3.08;2.50;;;5.70;99.90;;;;;;5061280;28;20389;-64
2023/10/16 02:35:22;;;;;;;3.90;2.50;;;5.70;99.90;;;;;;5054367;28;20033;-64
2023/10/16 02:37:57;;;;;;;5.25;2.97;;;5.70;99.90;;;;;;5036156;28;20025;-65
2023/10/16 02:40:26;;;;;;;5.10;2.95;;;5.70;99.90;;;;;;5054117;28;20024;-64
2023/10/16 02:42:56;;;;;;;5.03;2.75;;;5.60;99.90;;;;;;5053692;28;20025;-64
2023/10/16 02:45:27;;;;;;;3.15;2.75;;;5.60;99.90;;;;;;5053904;28;20029;-65
2023/10/16 02:47:53;;;;;;;3.88;3.05;;;5.60;99.90;;;;;;5054250;28;20449;-65
2023/10/16 02:50:19;;;;;;;6.03;3.38;;;5.50;99.90;;;;;;5053798;28;20029;-64
2023/10/16 02:52:49;;;;;;;2.55;2.35;;;5.60;99.90;;;;;;5035094;28;20373;-65
2023/10/16 02:55:15;;;;;;;2.90;2.65;;;5.60;99.90;;;;;;5053849;28;20025;-64
2023/10/16 02:57:41;;;;;;;6.25;3.33;;;5.50;99.90;;;;;;5053833;28;20029;-64
2023/10/16 03:00:24;;;;;;;3.05;2.13;;;5.50;99.90;;;;;;5035618;28;20071;-65
2023/10/16 03:02:51;;;;;;;3.03;2.47;;;5.40;99.90;;;;;;5054177;28;20029;-65
2023/10/16 03:05:23;;;;;;;2.92;2.60;;;5.40;99.90;;;;;;5035905;28;20552;-64
2023/10/16 03:07:50;;;;;;;4.13;2.53;;;5.30;99.90;;;;;;5053939;28;20021;-65
2023/10/16 03:10:17;;;;;;;3.10;2.42;;;5.20;99.90;;;;;;5036204;28;20032;-64
2023/10/16 03:12:43;;;;;;;2.72;2.40;;;5.20;99.90;;;;;;5053744;28;20031;-65
2023/10/16 03:15:15;;;;;;;3.70;2.15;;;5.20;99.90;;;;;;5035734;28;20474;-65
2023/10/16 03:17:41;;;;;;;5.45;3.05;;;5.10;99.90;;;;;;5036258;28;20079;-64
2023/10/16 03:20:20;;;;;;;2.22;1.92;;;5.00;99.90;;;;;;5053798;28;20189;-64
2023/10/16 03:22:47;;;;;;;4.47;2.65;;;5.00;99.90;;;;;;5053908;28;20437;-64
2023/10/16 03:25:28;;;;;;;3.05;2.00;;;5.00;99.90;;;;;;5053824;28;20029;-64
2023/10/16 03:27:56;;;;;;;3.38;2.00;;;5.00;99.90;;;;;;5035719;28;20377;-64
2023/10/16 03:30:27;;;;;;;3.38;2.95;;;5.00;99.90;;;;;;5053173;28;20032;-64
2023/10/16 03:32:53;;;;;;;4.47;2.95;;;5.00;99.90;;;;;;5053474;28;20382;-65
2023/10/16 03:35:29;;;;;;;3.88;2.75;;;5.00;99.90;;;;;;5035604;28;20025;-65
2023/10/16 03:37:56;;;;;;;5.03;3.60;;;5.00;99.90;;;;;;5053618;28;20021;-64
2023/10/16 03:40:25;;;;;;;3.80;3.15;;;5.00;99.90;;;;;;5053630;28;20357;-64
2023/10/16 03:42:56;;;;;;;3.53;2.70;;;5.00;99.90;;;;;;5053768;28;20029;-64
2023/10/16 03:45:22;;;;;;;3.47;3.10;;;5.00;99.90;;;;;;5035838;28;20041;-64
2023/10/16 03:48:00;;;;;;;4.50;3.38;;;5.00;99.90;;;;;;5035647;28;20025;-65
2023/10/16 03:50:34;;;;;;;3.50;2.88;;;4.90;99.90;;;;;;5053474;28;20082;-65
2023/10/16 03:53:03;;;;;;;4.32;3.00;;;4.90;99.90;;;;;;5053027;28;20025;-65
2023/10/16 03:55:31;;;;;;;5.15;3.08;;;4.90;99.90;;;;;;5053067;28;20044;-64
2023/10/16 03:57:57;;;;;;;6.65;3.67;;;4.80;99.90;;;;;;5053350;28;20108;-64
2023/10/16 04:00:26;;;;;;;4.95;3.00;;;4.80;99.90;;;;;;5053187;28;20057;-64
2023/10/16 04:02:52;;;;;;;4.85;3.33;;;4.80;99.90;;;;;;5054353;28;20021;-64
2023/10/16 04:05:29;;;;;;;9.48;3.80;;;4.80;99.90;;;;;;5056869;28;20059;-65
2023/10/16 04:07:56;;;;;;;5.97;3.58;;;4.70;99.90;;;;;;5057217;28;20028;-64
2023/10/16 04:10:28;;;;;;;7.38;3.38;;;4.60;99.90;;;;;;5056893;28;20071;-64
2023/10/16 04:12:57;;;;;;;3.65;3.03;;;4.60;99.90;;;;;;5056881;28;20028;-64
2023/10/16 04:15:50;;;;;;;5.90;3.45;;;4.50;99.90;;;;;;5038840;28;20037;-64
2023/10/16 04:53:07;;;;;;;8.88;5.60;;;4.00;99.90;;;;;;5056052;28;20033;-63
2023/10/16 05:01:22;;;;;;;9.40;5.70;;;4.00;99.90;;;;;;5056258;28;20432;-69
2023/10/16 05:14:22;;;;;;;8.40;4.78;;;3.80;99.90;;;;;;5054862;28;19909;-64
2023/10/16 06:14:20;;;;;;;16.08;8.15;;;3.70;99.90;;;;;;5051567;28;20044;-65
2023/10/16 06:16:53;;;;;;;16.50;8.88;;;3.80;99.90;;;;;;5054295;28;20033;-64
2023/10/16 06:19:21;;;;;;;18.13;8.48;;;3.90;99.90;;;;;;5054677;28;20021;-65
2023/10/16 06:21:51;;;;;;;15.30;9.13;;;4.00;99.90;;;;;;5054443;28;20110;-64
2023/10/16 06:24:33;;;;;;;17.17;10.05;;;4.20;99.90;;;;;;5054158;28;20476;-64
2023/10/16 06:27:01;;;;;;;16.40;10.45;;;4.40;99.90;;;;;;5054478;28;20102;-64
2023/10/16 06:29:41;;;;;;;15.27;9.98;;;4.80;99.90;;;;;;5036610;28;20039;-64
2023/10/16 06:32:19;;;;;;;17.48;9.40;;;5.10;99.90;;;;;;5036109;28;20049;-64
2023/10/16 06:35:00;;;;;;;15.95;9.77;;;5.30;99.90;;;;;;5054110;28;20483;-64
2023/10/16 06:37:32;;;;;;;14.48;8.57;;;5.50;99.90;;;;;;5054152;28;20071;-64
2023/10/16 06:40:00;;;;;;;12.82;8.38;;;5.60;99.90;;;;;;5054113;28;20032;-64
2023/10/16 06:42:27;;;;;;;12.43;7.88;;;5.80;99.90;;;;;;5054118;28;20074;-64
2023/10/16 06:44:53;;;;;;;14.88;8.57;;;5.90;99.90;;;;;;5053909;28;20076;-64
2023/10/16 06:47:35;;;;;;;13.27;8.00;;;6.00;99.90;;;;;;5053900;28;20040;-63
2023/10/16 06:50:01;;;;;;;15.05;7.43;;;6.10;99.90;;;;;;5054078;28;20477;-64
2023/10/16 06:52:27;;;;;;;13.77;7.18;;;6.20;99.90;;;;;;5036550;28;20025;-64
2023/10/16 06:54:53;;;;;;;8.90;6.57;;;6.30;99.90;;;;;;5036081;28;20380;-64
2023/10/16 06:57:19;;;;;;;11.23;6.57;;;6.30;99.90;;;;;;5036043;28;20028;-64
2023/10/16 06:59:45;;;;;;;7.95;6.15;;;6.40;99.90;;;;;;5036005;28;20029;-64
2023/10/16 07:02:15;;;;;;;12.25;6.32;;;6.50;99.90;;;;;;5053948;28;20024;-63
2023/10/16 07:04:44;;;;;;;9.43;6.22;;;6.70;99.90;;;;;;5054121;28;20045;-63
2023/10/16 07:07:16;;;;;;;9.95;5.65;;;6.90;99.90;;;;;;5036248;28;20083;-64
2023/10/16 07:09:47;;;;;;;10.68;5.38;;;7.10;99.90;;;;;;5036231;28;20033;-64
2023/10/16 07:12:19;;;;;;;6.50;4.65;;;7.20;99.90;;;;;;5053730;28;20032;-64
2023/10/16 07:14:55;;;;;;;7.13;5.40;;;7.50;99.90;;;;;;5053505;28;20029;-65
2023/10/16 07:17:30;;;;;;;7.45;4.68;;;7.90;99.90;;;;;;5053683;28;20017;-64
2023/10/16 07:19:59;;;;;;;4.65;4.07;;;8.20;99.90;;;;;;5053593;28;20117;-64
2023/10/16 07:22:33;;;;;;;7.03;4.40;;;8.70;99.90;;;;;;5053617;28;20497;-65
2023/10/16 07:25:23;;;;;;;7.07;4.10;;;9.30;99.90;;;;;;5053462;28;20453;-64
2023/10/16 07:27:49;;;;;;;6.53;3.42;;;9.80;99.90;;;;;;5053771;28;20037;-64
2023/10/16 07:30:25;;;;;;;4.78;3.35;;;10.40;99.90;;;;;;5053266;28;20092;-64
2023/10/16 07:32:51;;;;;;;6.30;3.30;;;11.00;99.90;;;;;;5054565;28;20049;-64
2023/10/16 07:35:18;;;;;;;4.15;2.83;;;11.50;99.90;;;;;;5053831;28;20040;-64
2023/10/16 07:37:48;;;;;;;6.53;3.90;;;11.70;99.90;;;;;;5054447;28;20393;-64
2023/10/16 07:40:20;;;;;;;6.25;3.15;;;11.70;99.90;;;;;;5057788;28;20112;-64
2023/10/16 07:42:49;;;;;;;5.55;3.45;;;12.00;99.90;;;;;;5058351;28;20029;-64
2023/10/16 07:45:15;;;;;;;6.93;3.05;;;12.30;99.90;;;;;;5058068;28;20041;-64
2023/10/16 07:47:41;;;;;;;3.90;2.63;;;12.40;99.90;;;;;;5039940;28;20492;-64
2023/10/16 07:50:11;;;;;;;4.88;3.00;;;12.30;99.90;;;;;;5039811;28;20469;-64
2023/10/16 07:52:36;;;;;;;5.35;3.22;;;12.50;99.90;;;;;;5057192;28;20482;-65
2023/10/16 07:55:03;;;;;;;3.65;2.60;;;13.00;99.90;;;;;;5057328;28;20106;-64
2023/10/16 07:57:32;;;;;;;11.65;3.38;;;13.40;99.20;;;;;;5039050;28;20028;-64
2023/10/16 07:59:58;;;;;;;2.78;2.35;;;13.90;98.40;;;;;;5039302;28;20376;-64
2023/10/16 08:02:24;;;;;;;4.15;2.20;;;14.40;97.00;;;;;;5057139;28;20036;-64
2023/10/16 08:04:53;;;;;;;4.43;2.83;;;14.60;96.30;;;;;;5056941;28;20043;-64
2023/10/16 08:07:18;;;;;;;4.90;2.40;;;15.00;95.00;;;;;;5057439;28;20032;-64
2023/10/16 08:09:54;;;;;;;3.85;2.05;;;15.20;93.60;;;;;;5057091;28;20029;-64
2023/10/16 08:12:20;;;;;;;3.63;2.25;;;15.50;92.50;;;;;;5057260;28;20083;-64
2023/10/16 08:14:54;;;;;;;6.32;2.42;;;16.00;91.30;;;;;;5056857;28;20037;-64
2023/10/16 08:17:32;;;;;;;24.55;3.85;;;16.30;90.40;;;;;;5057487;28;20367;-64
2023/10/16 08:19:58;;;;;;;8.93;3.38;;;16.70;90.10;;;;;;5057058;28;20057;-65
2023/10/16 08:22:25;;;;;;;7.50;2.72;;;17.00;86.60;;;;;;5056502;28;20064;-64
2023/10/16 08:24:57;;;;;;;4.75;2.38;;;17.30;85.80;;;;;;5056463;28;20548;-62
2023/10/16 08:27:44;;;;;;;4.55;2.53;;;17.70;82.50;;;;;;5056538;28;20040;-62
2023/10/16 08:33:06;;;;;;;3.92;2.58;;;17.30;82.40;;;;;;5056080;28;20111;-62
2023/10/16 08:35:38;;;;;;;3.25;2.28;;;16.80;82.50;;;;;;5056693;28;20125;-62
2023/10/16 08:38:10;;;;;;;4.38;2.28;;;16.50;84.20;;;;;;5056682;28;20064;-62
2023/10/16 08:40:39;;;;;;;6.22;2.67;;;16.30;83.10;;;;;;5056349;28;20346;-61
2023/10/16 08:43:08;;;;;;;4.35;2.10;;;15.60;84.10;;;;;;5059234;28;20028;-61
2023/10/16 08:45:34;;;;;;;6.03;2.13;;;15.80;85.40;;;;;;5062128;28;20033;-62
2023/10/16 08:48:05;;;;;;;11.95;2.58;;;16.00;85.30;;;;;;5067872;28;20029;-62
2023/10/16 08:50:42;;;;;;;4.80;2.25;;;16.80;83.40;;;;;;5066519;28;20067;-64
2023/10/16 08:53:30;;;;;;;15.88;2.85;;;16.90;81.60;;;;;;5067274;28;20021;-65
2023/10/16 08:56:03;;;;;;;5.40;2.63;;;17.30;80.10;;;;;;5049527;28;20033;-65
2023/10/16 08:58:32;;;;;;;3.90;2.13;;;16.70;80.10;;;;;;5049087;28;20055;-65
2023/10/16 09:00:58;;;;;;;11.90;2.95;;;16.70;82.70;;;;;;5042445;28;20025;-65
2023/10/16 09:03:24;;;;;;;7.90;2.67;;;17.20;82.30;;;;;;5059527;28;20032;-65
2023/10/16 09:05:51;;;;;;;4.03;2.15;;;17.50;78.70;;;;;;5055954;28;20073;-62
2023/10/16 09:08:17;;;;;;;4.00;1.92;;;18.00;76.90;;;;;;5055917;28;20060;-62
2023/10/16 09:10:44;;;;;;;4.93;2.35;;;18.30;74.90;;;;;;5056109;28;20056;-64
2023/10/16 09:13:19;;;;;;;3.25;2.28;;;18.10;75.50;;;;;;5056222;28;20025;-65
2023/10/16 09:15:45;;;;;;;4.45;2.40;;;18.50;74.20;;;;;;5038181;28;20025;-63
2023/10/16 09:18:17;;;;;;;18.48;2.85;;;19.30;71.80;;;;;;5056225;28;20090;-65
2023/10/16 09:20:43;;;;;;;6.90;2.55;;;19.70;68.60;;;;;;5038401;28;20029;-65
2023/10/16 09:23:15;;;;;;;6.28;2.22;;;18.70;69.90;;;;;;5037832;28;20116;-63
2023/10/16 09:25:47;;;;;;;5.55;2.42;;;17.60;70.90;;;;;;5066102;28;20393;-63
2023/10/16 09:28:22;;;;;;;3.47;1.63;;;17.40;72.90;;;;;;5064035;28;20083;-63
2023/10/16 09:30:49;;;;;;;3.35;2.28;;;17.50;70.20;;;;;;5055716;28;20029;-65
2023/10/16 09:33:15;;;;;;;6.70;2.45;;;17.40;72.10;;;;;;5056529;28;20044;-63
2023/10/16 09:35:45;;;;;;;2.88;1.98;;;18.20;71.70;;;;;;5064838;28;20400;-63
2023/10/16 09:38:23;;;;;;;2.38;1.70;;;19.40;68.50;;;;;;5074993;28;20472;-66
2023/10/16 09:49:13;;;;;;;3.08;1.45;;;19.80;63.30;;;;;;5074822;28;20075;-64
2023/10/16 09:51:40;;;;;;;2.45;1.40;;;21.00;60.50;;;;;;5055057;28;20104;-63
2023/10/16 09:54:09;;;;;;;6.18;1.60;;;21.20;59.00;;;;;;5056078;28;20032;-64
2023/10/16 09:56:39;;;;;;;3.55;1.80;;;21.80;57.50;;;;;;5044484;28;20048;-63
2023/10/16 09:59:14;;;;;;;2.92;1.30;;;21.70;56.80;;;;;;5075677;28;20036;-62
2023/10/16 10:01:42;;;;;;;4.22;1.48;;;20.30;57.10;;;;;;5056501;28;20468;-63
2023/10/16 10:04:10;;;;;;;2.63;1.33;;;19.80;59.20;;;;;;5074919;28;20028;-63
2023/10/16 10:06:39;;;;;;;1.85;1.08;;;18.60;59.40;;;;;;5056774;28;20064;-64
2023/10/16 10:11:44;;;;;;;3.92;1.55;;;17.60;63.30;;;;;;5074579;28;20365;-63
2023/10/16 10:16:56;;;;;;;2.75;1.23;;;17.50;63.90;;;;;;5074155;28;20111;-63
2023/10/16 10:19:35;;;;;;;2.47;1.10;;;18.20;61.80;;;;;;5074844;28;20029;-63
2023/10/16 10:22:06;;;;;;;1.73;1.08;;;18.30;61.10;;;;;;5056436;28;20025;-63
2023/10/16 10:24:35;;;;;;;2.63;1.33;;;17.90;60.50;;;;;;5074089;28;20082;-63
2023/10/16 10:27:03;;;;;;;1.30;1.00;;;16.90;62.10;;;;;;5076178;28;20051;-65
2023/10/16 10:29:29;;;;;;;4.93;1.35;;;17.10;62.80;;;;;;5076407;28;20040;-66
2023/10/16 10:32:06;;;;;;;4.22;1.05;;;17.70;62.90;;;;;;5076434;28;20040;-63
2023/10/16 10:34:31;;;;;;;3.13;0.75;;;18.00;61.60;;;;;;5075135;28;20024;-63
2023/10/16 10:37:00;;;;;;;0.50;0.43;;;17.90;57.80;;;;;;5074412;28;20032;-65
2023/10/16 10:42:05;;;;;;;2.80;0.90;;;16.30;59.80;;;;;;5074444;28;20480;-65
2023/10/16 10:44:33;;;;;;;0.98;0.80;;;16.90;61.80;;;;;;5074198;28;20406;-65
2023/10/16 10:47:04;;;;;;;1.42;0.75;;;18.30;58.60;;;;;;5074407;28;20028;-63
2023/10/16 10:49:35;;;;;;;1.65;0.80;;;19.60;55.70;;;;;;5073718;28;20385;-63
2023/10/16 10:52:06;;;;;;;3.17;0.93;;;21.00;53.90;;;;;;5072775;28;20353;-64
2023/10/16 10:54:42;;;;;;;2.03;1.02;;;21.30;53.00;;;;;;5036105;28;20496;-64
2023/10/16 10:57:17;;;;;;;2.67;0.90;;;21.40;51.50;;;;;;5054181;28;20056;-64
2023/10/16 10:59:56;;;;;;;1.25;0.68;;;20.50;51.50;;;;;;5058910;28;20369;-64
2023/10/16 11:04:58;;;;;;;1.08;0.35;;;20.30;52.20;;;;;;5053488;28;20037;-64
2023/10/16 11:07:59;;;;;;;0.90;0.80;;;20.30;51.20;;;;;;5035708;28;20461;-63
2023/10/16 11:10:24;;;;;;;2.03;0.82;;;20.70;50.60;;;;;;5035954;28;20032;-66
2023/10/16 11:12:50;;;;;;;1.75;0.85;;;21.10;50.90;;;;;;5053277;28;20029;-64
2023/10/16 11:15:16;;;;;;;2.80;1.00;;;21.30;49.70;;;;;;5053807;28;20033;-64
2023/10/16 11:17:44;;;;;;;2.47;0.90;;;21.70;50.10;;;;;;5035737;28;20025;-64
2023/10/16 11:22:43;;;;;;;1.80;0.75;;;21.20;49.20;;;;;;5053647;28;20029;-64
2023/10/16 11:25:12;;;;;;;1.10;0.70;;;20.60;49.30;;;;;;5053350;28;20033;-63
2023/10/16 11:27:41;;;;;;;2.70;0.90;;;20.30;50.20;;;;;;5053869;28;20373;-64
2023/10/16 11:30:18;;;;;;;0.93;0.70;;;20.20;50.60;;;;;;5053570;28;20048;-63
2023/10/16 11:32:46;;;;;;;0.57;0.55;;;21.00;50.30;;;;;;5054349;28;20048;-65
2023/10/16 11:35:17;;;;;;;1.08;0.40;;;21.80;46.10;;;;;;5072485;28;20056;-63
2023/10/16 11:37:50;;;;;;;1.65;0.40;;;22.60;45.50;;;;;;5073887;28;20025;-65
2023/10/16 11:40:19;;;;;;;2.15;1.45;;;22.50;43.50;;;;;;5072676;28;20380;-66
2023/10/16 11:42:46;;;;;;;1.58;0.77;;;23.20;43.50;;;;;;5073310;28;20035;-66
2023/10/16 11:45:18;;;;;;;1.10;0.40;;;23.60;42.30;;;;;;5073216;28;20035;-63
2023/10/16 11:47:44;;;;;;;1.65;0.40;;;23.70;41.10;;;;;;5073606;28;20353;-65
2023/10/16 11:50:17;;;;;;;0.93;0.40;;;23.70;41.40;;;;;;5073310;28;20025;-66
2023/10/16 11:52:43;;;;;;;1.02;0.43;;;24.50;41.30;;;;;;5073662;28;20025;-65
2023/10/16 11:55:09;;;;;;;2.78;0.40;;;23.80;40.10;;;;;;5073527;28;20476;-65
2023/10/16 11:57:35;;;;;;;1.85;0.73;;;23.00;41.20;;;;;;5073146;28;20033;-65
2023/10/16 12:00:15;;;;;;;0.57;0.30;;;22.70;42.20;;;;;;5073628;28;20107;-63
2023/10/16 12:02:42;;;;;;;1.75;0.70;;;23.20;42.60;;;;;;5073551;28;20032;-63
2023/10/16 12:05:07;;;;;;;1.15;0.30;;;23.00;40.80;;;;;;5073501;28;20484;-64
2023/10/16 12:07:33;;;;;;;0.50;0.30;;;23.10;40.60;;;;;;5073361;28;20032;-63
2023/10/16 12:10:04;;;;;;;1.40;0.30;;;22.80;40.80;;;;;;5073623;28;20032;-63
2023/10/16 12:12:30;;;;;;;0.47;0.35;;;22.60;40.80;;;;;;5072621;28;20202;-63
2023/10/16 12:14:57;;;;;;;0.82;0.50;;;22.20;41.30;;;;;;5073203;28;20090;-63
2023/10/16 12:17:24;;;;;;;1.38;0.82;;;22.50;41.40;;;;;;5073191;28;20032;-63
2023/10/16 12:19:53;;;;;;;0.52;0.40;;;22.50;41.80;;;;;;5073203;28;20025;-65
2023/10/16 12:22:20;;;;;;;1.95;0.63;;;21.90;42.40;;;;;;5073231;28;20101;-63
2023/10/16 12:24:47;;;;;;;2.58;0.60;;;21.80;42.40;;;;;;5075663;28;20399;-64
2023/10/16 12:27:15;;;;;;;2.22;0.43;;;22.20;44.00;;;;;;5077054;28;20032;-64
2023/10/16 12:29:41;;;;;;;0.60;0.60;;;23.10;42.30;;;;;;5076858;28;20437;-63
2023/10/16 12:32:07;;;;;;;2.03;0.80;;;22.70;41.80;;;;;;5070583;28;20044;-63
2023/10/16 12:34:33;;;;;;;1.30;0.60;;;22.30;42.00;;;;;;5056356;28;20469;-64
2023/10/16 12:37:06;;;;;;;2.33;0.50;;;22.10;43.20;;;;;;5038830;28;20032;-63
2023/10/16 12:39:35;;;;;;;0.82;0.68;;;21.80;42.80;;;;;;5056503;28;20028;-63
2023/10/16 12:42:06;;;;;;;2.55;0.68;;;21.10;43.50;;;;;;5038979;28;20122;-63
2023/10/16 12:44:32;;;;;;;1.55;0.52;;;20.50;45.50;;;;;;5056293;28;20104;-63
2023/10/16 12:46:58;;;;;;;1.10;0.50;;;20.80;43.70;;;;;;5056253;28;20132;-63
2023/10/16 12:49:25;;;;;;;0.77;0.43;;;21.10;44.00;;;;;;5056260;28;20036;-63
2023/10/16 12:51:51;;;;;;;4.40;0.88;;;21.10;43.20;;;;;;5056244;28;20029;-63
2023/10/16 12:54:19;;;;;;;0.68;0.32;;;21.30;41.80;;;;;;5056040;28;20040;-63
2023/10/16 12:56:45;;;;;;;1.55;0.40;;;21.70;42.10;;;;;;5056045;28;20358;-63
2023/10/16 12:59:11;;;;;;;0.55;0.40;;;21.30;40.60;;;;;;5056170;28;20067;-63
2023/10/16 13:01:38;;;;;;;2.00;0.52;;;21.20;41.50;;;;;;5055968;28;20085;-64
2023/10/16 13:04:11;;;;;;;2.45;0.70;;;21.30;42.00;;;;;;5056055;28;20029;-63
2023/10/16 13:06:36;;;;;;;1.00;0.50;;;21.50;42.00;;;;;;5038740;28;20033;-63
2023/10/16 13:09:02;;;;;;;1.67;0.40;;;21.80;42.00;;;;;;5055932;28;20358;-63
2023/10/16 13:11:28;;;;;;;3.47;0.63;;;21.50;42.40;;;;;;5055858;28;20061;-63
2023/10/16 13:13:55;;;;;;;2.90;0.60;;;20.60;44.80;;;;;;5055764;28;20063;-63
2023/10/16 13:16:25;;;;;;;0.90;0.60;;;21.00;44.30;;;;;;5055798;28;20388;-63
2023/10/16 13:18:57;;;;;;;3.90;0.95;;;21.60;42.90;;;;;;5055399;28;20506;-63
2023/10/16 13:21:33;;;;;;;1.75;0.52;;;21.70;41.90;;;;;;5055864;28;20078;-63
2023/10/16 13:24:09;;;;;;;2.15;0.47;;;20.70;42.40;;;;;;5038109;28;20024;-65
2023/10/16 13:26:38;;;;;;;5.55;0.70;;;19.40;44.00;;;;;;5039566;28;20037;-65
2023/10/16 13:29:11;;;;;;;1.55;0.70;;;18.40;46.30;;;;;;5039723;28;20029;-65
2023/10/16 13:31:41;;;;;;;5.15;0.60;;;18.00;47.00;;;;;;5038700;28;20037;-65
2023/10/16 13:34:17;;;;;;;0.60;0.50;;;18.10;46.10;;;;;;5057550;28;20029;-65
2023/10/16 13:36:56;;;;;;;1.48;0.60;;;17.80;47.10;;;;;;5054935;28;20032;-70
2023/10/16 13:39:24;;;;;;;6.82;0.50;;;17.80;47.60;;;;;;5037330;28;20512;-65
2023/10/16 13:41:50;;;;;;;1.87;0.50;;;17.60;47.50;;;;;;5055322;28;20106;-65
2023/10/16 13:44:21;;;;;;;2.83;0.75;;;17.70;47.10;;;;;;5055257;28;20339;-65
2023/10/16 13:46:48;;;;;;;1.65;0.57;;;17.60;47.00;;;;;;5055052;28;20115;-65
2023/10/16 13:49:15;;;;;;;1.25;0.60;;;17.50;47.50;;;;;;5054965;28;20032;-65
2023/10/16 13:51:41;;;;;;;0.80;0.50;;;17.40;46.20;;;;;;5055203;28;20032;-65
2023/10/16 13:54:11;;;;;;;1.13;0.52;;;17.10;46.70;;;;;;5054811;28;20100;-65
2023/10/16 13:56:49;;;;;;;1.02;0.70;;;16.70;46.90;;;;;;5054446;28;20373;-64
2023/10/16 13:59:18;;;;;;;1.80;0.80;;;16.50;48.30;;;;;;5054971;28;20021;-66
2023/10/16 14:01:43;;;;;;;;;;;16.20;48.20;;;;;;5055321;28;20028;-65
2023/10/16 14:04:16;;;;;;;1.40;0.50;;;16.00;48.20;;;;;;5036711;28;19904;-65
2023/10/16 14:06:52;;;;;;;1.52;0.52;;;15.80;49.00;;;;;;5054496;28;20083;-64
2023/10/16 14:09:27;;;;;;;1.40;0.68;;;15.80;49.10;;;;;;5054579;28;20045;-65
2023/10/16 14:11:54;;;;;;;4.07;0.80;;;15.70;50.60;;;;;;5037152;28;20380;-65
2023/10/16 14:14:20;;;;;;;3.58;0.70;;;15.50;51.00;;;;;;5054164;28;20461;-64
2023/10/16 14:17:03;;;;;;;1.25;0.70;;;15.30;51.20;;;;;;5036620;28;20432;-65
2023/10/16 14:19:30;;;;;;;1.52;0.80;;;15.20;51.60;;;;;;5036711;28;20052;-65
2023/10/16 14:21:57;;;;;;;3.00;1.40;;;15.30;52.40;;;;;;5054649;28;20033;-65
2023/10/16 14:24:24;;;;;;;1.27;0.50;;;15.30;52.00;;;;;;5054770;28;20025;-64
2023/10/16 14:26:56;;;;;;;1.42;0.70;;;15.30;50.10;;;;;;5054904;28;20079;-65
2023/10/16 14:29:22;;;;;;;0.50;0.50;;;15.20;52.50;;;;;;5055170;28;20264;-66
2023/10/16 14:31:51;;;;;;;3.63;0.82;;;15.00;50.90;;;;;;5074595;28;20049;-65
2023/10/16 14:34:21;;;;;;;4.10;1.00;;;15.00;52.30;;;;;;5074367;28;20032;-65
2023/10/16 14:36:51;;;;;;;1.63;0.50;;;15.00;53.80;;;;;;5074233;28;20267;-65
2023/10/16 14:39:18;;;;;;;3.53;0.30;;;15.00;56.70;;;;;;5073873;28;20024;-65
2023/10/16 14:41:44;;;;;;;1.55;0.43;;;14.80;58.80;;;;;;5073854;28;20253;-65
2023/10/16 14:44:11;;;;;;;0.40;0.40;;;14.40;59.40;;;;;;5073886;28;20029;-65
2023/10/16 14:46:38;;;;;;;2.35;0.43;;;14.20;60.10;;;;;;5074367;28;20029;-65
2023/10/16 14:49:08;;;;;;;1.42;0.60;;;14.00;59.70;;;;;;5057140;28;20496;-66
2023/10/16 14:51:38;;;;;;;2.58;0.40;;;13.80;61.10;;;;;;5076896;28;20107;-65
2023/10/16 14:54:06;;;;;;;2.13;0.30;;;13.70;63.50;;;;;;5075414;28;20055;-66
2023/10/16 14:56:36;;;;;;;1.55;0.40;;;13.40;65.20;;;;;;5057263;28;20039;-66
2023/10/16 14:59:08;;;;;;;1.70;0.70;;;13.10;64.50;;;;;;5074353;28;20471;-66
2023/10/16 15:01:34;;;;;;;1.23;0.40;;;13.90;66.20;;;;;;5074431;28;20461;-66
2023/10/16 15:03:59;;;;;;;1.20;0.50;;;12.80;65.20;;;;;;5074350;28;20036;-65
2023/10/16 15:06:29;;;;;;;3.38;0.75;;;12.50;66.80;;;;;;5056160;28;20033;-66
2023/10/16 15:08:57;;;;;;;1.40;0.30;;;12.30;70.60;;;;;;5074101;28;20386;-66
2023/10/16 15:11:26;;;;;;;1.55;0.50;;;12.00;71.40;;;;;;5075252;28;20021;-66
2023/10/16 15:13:51;;;;;;;;;;;11.90;70.10;;;;;;5076786;28;20024;-65
2023/10/16 15:16:17;;;;;;;1.10;0.55;;;11.70;71.50;;;;;;5075769;28;19905;-66
2023/10/16 15:18:43;;;;;;;0.93;0.50;;;11.60;73.10;;;;;;5076276;28;20024;-67